createdAt,value
2022-10-06T00:09:09.390Z,2.53
2022-10-06T00:19:11.156Z,2.63
2022-10-06T00:29:18.360Z,2.60
2022-10-06T00:39:20.230Z,2.70
2022-10-06T00:49:32.336Z,2.17
2022-10-06T00:59:36.671Z,3.15
2022-10-06T01:09:39.396Z,3.15
2022-10-06T01:19:52.586Z,2.40
2022-10-06T01:29:56.159Z,2.55
2022-10-06T01:39:58.074Z,3.13
2022-10-06T01:50:00.339Z,3.28
2022-10-06T02:00:04.488Z,4.55
2022-10-06T02:10:14.600Z,3.67
2022-10-06T02:20:17.210Z,2.38
2022-10-06T02:30:20.405Z,3.17
2022-10-06T02:40:22.475Z,3.90
2022-10-06T02:50:25.604Z,3.53
2022-10-06T03:00:27.585Z,2.97
2022-10-06T03:10:29.627Z,2.28
2022-10-06T03:20:31.616Z,3.42
2022-10-06T03:30:33.663Z,4.07
2022-10-06T03:40:35.598Z,3.20
2022-10-06T03:50:37.922Z,3.72
2022-10-06T04:00:39.853Z,3.55
2022-10-06T04:10:41.737Z,3.72
2022-10-06T04:20:43.681Z,3.35
2022-10-06T04:30:56.270Z,3.05
2022-10-06T04:41:14.596Z,3.50
2022-10-06T04:51:17.869Z,3.75
2022-10-06T05:01:26.800Z,5.30
2022-10-06T05:11:29.881Z,4.13
2022-10-06T05:21:32.952Z,3.70
2022-10-06T05:31:36.725Z,4.80
2022-10-06T05:41:39.598Z,3.10
2022-10-06T05:51:44.256Z,4.82
2022-10-06T06:01:51.347Z,4.32
2022-10-06T06:12:01.909Z,5.47
2022-10-06T06:22:32.957Z,4.10
2022-10-06T06:32:40.287Z,5.50
2022-10-06T06:42:43.273Z,4.07
2022-10-06T06:52:57.051Z,4.03
2022-10-06T07:02:59.531Z,4.50
2022-10-06T07:13:05.752Z,6.30
2022-10-06T07:23:21.817Z,4.43
2022-10-06T07:33:23.897Z,4.45
2022-10-06T07:43:27.720Z,4.80
2022-10-06T07:53:30.728Z,3.95
2022-10-06T08:03:41.688Z,5.15
2022-10-06T08:13:46.739Z,5.30
2022-10-06T08:23:50.767Z,3.97
2022-10-06T08:33:59.117Z,4.03
2022-10-06T08:44:13.674Z,4.43
2022-10-06T08:54:41.780Z,4.30
2022-10-06T09:04:43.889Z,3.70
2022-10-06T09:26:22.877Z,5.70
2022-10-06T09:36:57.682Z,4.03
2022-10-06T09:47:20.312Z,7.32
2022-10-06T09:57:29.319Z,5.78
2022-10-06T10:07:31.458Z,4.65
2022-10-06T10:17:48.710Z,5.65
2022-10-06T10:28:15.874Z,5.30
2022-10-06T10:38:23.183Z,5.13
2022-10-06T10:48:32.520Z,3.88
2022-10-06T10:58:36.993Z,4.80
2022-10-06T11:20:40.117Z,3.22
2022-10-06T11:31:09.737Z,5.55
2022-10-06T11:41:47.718Z,3.40
2022-10-06T12:59:46.612Z,2.20
2022-10-06T13:09:51.281Z,3.13
2022-10-06T13:19:53.297Z,22.77
2022-10-06T13:30:25.771Z,5.20
2022-10-06T13:40:44.197Z,3.95
2022-10-06T13:50:48.779Z,2.92
2022-10-06T14:01:00.105Z,3.42
2022-10-06T14:11:08.433Z,3.50
2022-10-06T14:21:39.959Z,2.53
2022-10-06T14:31:49.097Z,3.78
2022-10-06T14:41:51.045Z,3.30
2022-10-06T14:51:54.265Z,4.53
2022-10-06T15:01:56.173Z,3.92
2022-10-06T15:11:59.158Z,4.32
2022-10-06T15:22:01.196Z,6.50
2022-10-06T15:32:05.159Z,6.30
2022-10-06T15:42:07.787Z,5.82
2022-10-06T15:52:12.226Z,6.20
2022-10-06T16:02:15.905Z,6.57
2022-10-06T16:12:25.786Z,4.88
2022-10-06T16:22:27.927Z,7.53
2022-10-06T16:32:30.068Z,5.75
2022-10-06T16:42:31.942Z,7.72
2022-10-06T16:52:33.947Z,13.93
2022-10-06T17:02:35.943Z,16.02
2022-10-06T17:12:38.357Z,7.43
2022-10-06T17:22:40.730Z,7.85
2022-10-06T17:32:43.276Z,5.43
2022-10-06T17:42:45.443Z,7.85
2022-10-06T17:53:04.189Z,5.72
2022-10-06T18:03:06.106Z,5.33
2022-10-06T18:13:07.958Z,5.22
2022-10-06T18:23:09.834Z,7.70
2022-10-06T18:43:34.459Z,15.32
2022-10-06T18:53:37.031Z,15.13
2022-10-06T19:04:01.686Z,11.15
2022-10-06T19:14:15.344Z,20.83
2022-10-06T19:24:19.836Z,27.67
2022-10-06T19:34:25.629Z,28.27
2022-10-06T19:55:02.645Z,25.67
2022-10-06T20:16:34.658Z,36.13
2022-10-06T20:26:39.871Z,45.08
2022-10-06T20:36:55.634Z,38.65
2022-10-06T20:47:32.185Z,38.67
2022-10-06T20:58:06.712Z,33.17
2022-10-06T21:08:14.147Z,35.80
2022-10-06T21:18:35.305Z,32.42
2022-10-06T21:28:38.807Z,32.05
2022-10-06T21:38:42.379Z,31.25
2022-10-06T22:00:09.679Z,28.15
2022-10-06T22:10:15.949Z,32.92
2022-10-06T22:20:18.074Z,32.88
2022-10-06T22:30:20.265Z,33.38
2022-10-06T22:40:23.312Z,33.63
2022-10-06T22:50:27.110Z,43.13
2022-10-06T23:00:29.154Z,37.65
2022-10-06T23:10:32.645Z,34.42
2022-10-06T23:20:34.840Z,33.35
2022-10-06T23:30:38.501Z,36.97
2022-10-06T23:40:41.324Z,32.92
2022-10-06T23:50:43.586Z,33.85
